Time;durP1;ratioP1;P1;durP2;ratioP2;P2;SDS_P1;SDS_P2;PMS_P1;PMS_P2;Temp;Humidity;BMP_temperature;BMP_pressure;BME280_temperature;BME280_humidity;BME280_pressure;Samples;Min_cycle;Max_cycle;Signal;HPM_P1;HPM_P2
2024/03/11 00:01:10;;;;;;;;;22.33;21.00;;;;;9.95;68.31;99916.91;1998635;28;3572120;-67
2024/03/11 00:02:22;;;;;;;;;26.50;26.00;;;;;9.95;68.15;99912.47;1995115;28;2834689;-67
2024/03/11 00:03:33;;;;;;;;;25.50;23.00;;;;;9.94;68.13;99912.56;1999129;28;2842012;-67
2024/03/11 00:04:44;;;;;;;;;29.50;28.50;;;;;9.93;68.41;99902.97;1977430;28;2851282;-67
2024/03/11 00:05:55;;;;;;;;;5.33;2.00;;;;;9.96;68.23;99913.34;2011117;28;2739849;-67
2024/03/11 00:07:08;;;;;;;;;25.67;22.00;;;;;9.94;67.84;99908.16;1981159;28;3581482;-67
2024/03/11 00:08:21;;;;;;;;;28.50;24.50;;;;;9.96;68.07;99913.34;2001587;28;2847145;-67
2024/03/11 00:09:32;;;;;;;;;29.33;27.33;;;;;9.90;67.76;99904.81;1975979;28;3590857;-67
2024/03/11 00:10:45;;;;;;;;;31.40;27.20;;;;;9.93;67.77;99910.84;2014183;28;3596025;-67
2024/03/11 00:11:56;;;;;;;;;33.00;26.00;;;;;9.95;68.16;99909.84;1987750;28;3587730;-67
2024/03/11 00:13:10;;;;;;;;;28.33;23.33;;;;;9.93;68.00;99911.69;1978448;28;3575261;-67
2024/03/11 00:14:26;;;;;;;;;29.50;27.50;;;;;9.94;67.99;99910.78;1993089;28;2858629;-67
2024/03/11 00:15:39;;;;;;;;;30.33;26.33;;;;;9.95;68.01;99922.97;1975298;28;3578347;-67
2024/03/11 00:16:50;;;;;;;;;31.00;27.00;;;;;9.94;67.88;99923.06;1969573;28;2852357;-67
2024/03/11 00:18:02;;;;;;;;;28.33;24.67;;;;;9.94;67.85;99928.31;1977002;28;3567950;-66
2024/03/11 00:19:14;;;;;;;;;34.20;30.60;;;;;9.94;67.94;99929.16;2012862;28;3605757;-67
2024/03/11 00:20:26;;;;;;;;;31.60;27.60;;;;;9.94;68.07;99929.16;1999077;28;3605426;-66
2024/03/11 00:21:38;;;;;;;;;29.00;27.40;;;;;9.93;68.02;99929.22;1999042;28;3589802;-66
2024/03/11 00:22:50;;;;;;;;;31.40;28.60;;;;;9.90;67.79;99925.81;1997252;28;3597079;-67
2024/03/11 00:24:01;;;;;;;;;27.67;19.33;;;;;9.88;67.92;99921.53;1980647;28;2855936;-67
2024/03/11 00:25:12;;;;;;;;;37.00;29.50;;;;;9.90;68.23;99923.19;1999912;28;2865897;-67
2024/03/11 00:26:24;;;;;;;;;28.00;26.33;;;;;9.88;67.95;99930.28;1977599;28;3583518;-66
2024/03/11 00:27:38;;;;;;;;;33.50;27.50;;;;;9.93;67.88;99934.47;1995947;28;2866888;-66
2024/03/11 00:28:49;;;;;;;;;28.00;25.50;;;;;9.88;68.13;99926.78;1970396;28;2853358;-67
2024/03/11 00:30:08;;;;;;;;;29.43;23.71;;;;;9.91;67.82;99929.28;1986554;28;3579426;-67
2024/03/11 00:31:21;;;;;;;;;29.67;29.33;;;;;9.88;67.92;99934.66;1976595;28;3598672;-66
2024/03/11 00:32:31;;;;;;;;;27.50;26.50;;;;;9.91;67.90;99929.28;1976987;28;2859008;-67
2024/03/11 00:33:43;;;;;;;;;31.80;30.40;;;;;9.88;67.97;99930.28;1993412;28;3602271;-66
2024/03/11 00:34:55;;;;;;;;;31.20;26.20;;;;;9.86;67.78;99932.13;2022582;28;3599162;-67
2024/03/11 00:36:07;;;;;;;;;34.20;30.40;;;;;9.86;67.84;99928.63;1990780;28;3603320;-66
2024/03/11 00:37:19;;;;;;;;;35.00;31.00;;;;;9.87;67.72;99946.97;1980872;28;3585657;-67
2024/03/11 00:38:32;;;;;;;;;30.60;28.20;;;;;9.85;67.48;99940.91;1978910;28;3590937;-67
2024/03/11 00:39:44;;;;;;;;;31.67;28.33;;;;;9.88;67.83;99951.28;2000293;28;3608615;-66
2024/03/11 00:40:55;;;;;;;;;31.00;28.00;;;;;9.85;67.66;99951.41;1991985;28;3606803;-67
2024/03/11 00:42:07;;;;;;;;;34.33;25.00;;;;;9.86;67.96;99949.63;1990012;28;3596065;-67
2024/03/11 00:43:19;;;;;;;;;30.00;29.00;;;;;9.86;67.84;99961.00;2017520;28;3580405;-67
2024/03/11 00:44:31;;;;;;;;;31.40;29.80;;;;;9.87;68.05;99954.84;1998683;28;3606504;-66
2024/03/11 00:45:43;;;;;;;;;30.00;27.60;;;;;9.84;68.17;99946.22;1996697;28;3604365;-67
2024/03/11 00:46:55;;;;;;;;;29.33;27.67;;;;;9.86;67.95;99953.13;1991118;28;3597095;-67
2024/03/11 00:48:11;;;;;;;;;35.00;28.20;;;;;9.86;67.94;99947.00;1997132;28;3605410;-67
2024/03/11 00:49:26;;;;;;;;;33.67;30.00;;;;;9.85;67.93;99943.53;1974170;28;3585656;-67
2024/03/11 00:50:37;;;;;;;;;38.33;31.00;;;;;9.84;68.00;99949.72;1999240;28;3592303;-67
2024/03/11 00:51:51;;;;;;;;;30.86;29.14;;;;;9.82;67.93;99946.31;1994041;28;3584626;-66
2024/03/11 00:53:02;;;;;;;;;33.00;28.00;;;;;9.83;67.76;99944.53;1978178;28;3608580;-67
2024/03/11 00:54:14;;;;;;;;;31.00;31.00;;;;;9.83;67.74;99950.63;1974966;28;3587739;-67
2024/03/11 00:55:26;;;;;;;;;36.60;31.40;;;;;9.82;67.55;99951.56;1997843;28;3587711;-67
2024/03/11 00:56:38;;;;;;;;;33.20;31.40;;;;;9.82;67.81;99951.56;1998274;28;3604366;-66
2024/03/11 00:57:51;;;;;;;;;36.67;31.00;;;;;9.81;67.96;99954.22;1974351;28;3606502;-66
2024/03/11 00:59:04;;;;;;;;;33.50;29.00;;;;;9.81;68.16;99957.69;1964231;28;2856558;-67
2024/03/11 01:00:16;;;;;;;;;37.00;31.00;;;;;9.80;67.83;99953.41;1972165;28;2871098;-66
2024/03/11 01:01:26;;;;;;;;;35.00;30.00;;;;;9.77;67.90;99943.88;1978486;28;2850242;-66
2024/03/11 01:02:38;;;;;;;;;28.80;28.00;;;;;9.80;68.11;99948.16;1996317;28;3598108;-67
2024/03/11 01:03:50;;;;;;;;;32.40;29.80;;;;;9.77;68.17;99945.63;2020415;28;3601253;-66
2024/03/11 01:05:03;;;;;;;;;34.00;28.60;;;;;9.77;68.06;99948.25;1989559;28;3601269;-66
2024/03/11 01:06:15;;;;;;;;;31.00;28.50;;;;;9.78;67.88;99945.56;1974102;28;2850213;-67
2024/03/11 01:07:26;;;;;;;;;34.00;28.50;;;;;9.78;68.15;99948.19;1971723;28;2864788;-67
2024/03/11 01:08:38;;;;;;;;;35.80;31.00;;;;;9.73;68.08;99937.03;1982793;28;3604881;-67
2024/03/11 01:09:50;;;;;;;;;28.40;27.20;;;;;9.77;68.11;99946.50;1986552;28;3599159;-66
2024/03/11 01:11:02;;;;;;;;;27.00;24.33;;;;;9.77;68.38;99945.63;1980258;28;3577327;-67
2024/03/11 01:12:14;;;;;;;;;43.00;32.00;;;;;9.76;68.09;99943.91;2011839;28;3588767;-66
2024/03/11 01:13:26;;;;;;;;;29.00;27.00;;;;;9.73;68.07;99941.44;1989668;28;3594337;-66
2024/03/11 01:14:37;;;;;;;;;25.00;24.33;;;;;9.73;68.17;99941.44;1986550;28;3590841;-67
2024/03/11 01:15:50;;;;;;;;;36.60;31.00;;;;;9.74;68.18;99948.38;2016178;28;3619327;-67
2024/03/11 01:17:02;;;;;;;;;34.60;29.20;;;;;9.74;68.24;99951.88;1983184;28;3611681;-66
2024/03/11 01:18:14;;;;;;;;;28.33;26.00;;;;;9.72;68.30;99953.72;1983683;28;3587720;-67
2024/03/11 01:19:27;;;;;;;;;31.67;27.67;;;;;9.74;68.01;99961.50;2001837;28;3599193;-67
2024/03/11 01:20:40;;;;;;;;;29.00;26.00;;;;;9.74;68.10;99964.13;1975992;28;3581486;-67
2024/03/11 01:21:51;;;;;;;;;26.50;25.00;;;;;9.70;68.14;99952.94;2000683;28;2850277;-66
2024/03/11 01:23:05;;;;;;;;;29.00;26.60;;;;;9.68;68.03;99952.97;1986191;28;3579394;-66
2024/03/11 01:24:16;;;;;;;;;27.00;24.67;;;;;9.68;67.97;99960.84;1993163;28;2848150;-66
2024/03/11 01:25:28;;;;;;;;;28.67;23.67;;;;;9.63;68.16;99952.31;1995341;28;3587743;-66
2024/03/11 01:26:40;;;;;;;;;27.80;25.80;;;;;9.65;68.00;99955.75;1989782;28;3580423;-67
2024/03/11 01:27:53;;;;;;;;;23.00;22.00;;;;;9.63;68.34;99957.56;2014380;28;3590275;-67
2024/03/11 01:29:03;;;;;;;;;27.00;23.00;;;;;9.63;67.97;99962.81;1971359;28;1986823;-67
2024/03/11 01:30:15;;;;;;;;;28.00;22.33;;;;;9.63;68.33;99962.81;2011872;28;3588772;-67
2024/03/11 01:31:28;;;;;;;;;27.00;25.33;;;;;9.63;68.14;99959.34;1989275;28;3571085;-66
2024/03/11 01:32:44;;;;;;;;;27.00;23.00;;;;;9.52;68.19;99955.41;1999779;28;3572206;-67
2024/03/11 01:33:54;;;;;;;;;26.00;24.00;;;;;9.58;68.15;99962.13;1994708;28;2836727;-66
2024/03/11 01:35:06;;;;;;;;;28.33;27.33;;;;;9.56;68.11;99966.59;2009324;28;3589810;-67
2024/03/11 01:36:18;;;;;;;;;26.60;24.20;;;;;9.54;68.18;99964.06;1997898;28;3579351;-67
2024/03/11 01:37:30;;;;;;;;;26.60;23.40;;;;;9.53;68.02;99966.75;1983554;28;3589799;-66
2024/03/11 01:38:42;;;;;;;;;25.00;21.00;;;;;9.52;68.16;99970.28;1981581;28;3578361;-67
2024/03/11 01:39:54;;;;;;;;;28.33;26.33;;;;;9.53;68.17;99972.00;2011006;28;3584622;-67
2024/03/11 01:41:07;;;;;;;;;21.00;18.00;;;;;9.53;68.08;99979.88;2005346;28;3573149;-66
2024/03/11 01:42:19;;;;;;;;;22.00;20.67;;;;;9.51;68.36;99971.19;1997306;28;3571150;-67
2024/03/11 01:43:31;;;;;;;;;22.67;21.67;;;;;9.51;68.00;99979.03;2011962;28;3577324;-67
2024/03/11 01:44:47;;;;;;;;;14.50;13.50;;;;;9.45;68.32;99970.53;2011340;28;2795068;-66
2024/03/11 01:45:59;;;;;;;;;23.00;19.33;;;;;9.47;68.25;99986.22;1992014;28;2823179;-66
2024/03/11 01:47:15;;;;;;;;;20.67;19.33;;;;;9.46;67.90;99979.25;1992180;28;2832680;-67
2024/03/11 01:48:26;;;;;;;;;19.00;17.67;;;;;9.43;68.10;99980.22;1991872;28;3564796;-67
2024/03/11 01:49:41;;;;;;;;;21.00;20.75;;;;;9.43;68.20;99977.59;2020123;28;1835709;-66
2024/03/11 01:50:54;;;;;;;;;22.33;18.00;;;;;9.41;68.14;99979.44;1976438;28;3563779;-67
2024/03/11 01:52:07;;;;;;;;;22.33;18.33;;;;;9.39;68.41;99977.78;2000065;28;3577336;-66
2024/03/11 01:53:18;;;;;;;;;19.50;17.00;;;;;9.36;68.37;99978.75;1998691;28;2829405;-66
2024/03/11 01:54:31;;;;;;;;;18.00;18.00;;;;;9.39;68.46;99991.75;1983928;28;2835712;-67
2024/03/11 01:55:46;;;;;;;;;21.60;18.40;;;;;9.37;68.16;99983.09;1987449;28;2831508;-66
2024/03/11 01:56:57;;;;;;;;;19.67;14.67;;;;;9.34;68.52;99983.22;1975468;28;3546062;-66
2024/03/11 01:58:10;;;;;;;;;21.60;18.80;;;;;9.34;68.38;99986.69;2009289;28;3568954;-66
2024/03/11 01:59:23;;;;;;;;;23.33;19.00;;;;;9.34;68.61;99998.94;1989065;28;3575268;-66
2024/03/11 02:00:37;;;;;;;;;17.50;14.67;;;;;9.35;68.50;99990.19;2021228;28;1832635;-66
2024/03/11 02:01:48;;;;;;;;;19.67;16.00;;;;;9.34;68.41;99991.94;1976895;28;2824425;-66
2024/03/11 02:03:00;;;;;;;;;21.67;19.00;;;;;9.28;68.52;99980.84;1998875;28;2827428;-66
2024/03/11 02:04:10;;;;;;;;;19.00;19.00;;;;;9.32;68.25;99985.06;1994939;28;2832578;-66
2024/03/11 02:05:25;;;;;;;;;18.67;16.33;;;;;9.32;68.65;99991.16;1988564;28;3559588;-67
2024/03/11 02:06:35;;;;;;;;;16.00;16.00;;;;;9.33;68.25;99998.09;1992313;28;2820014;-66
2024/03/11 02:07:54;;;;;;;;;18.00;15.00;;;;;9.30;68.49;99994.75;1989278;28;2804430;-67
2024/03/11 02:09:08;;;;;;;;;18.67;16.50;;;;;9.31;68.51;99988.59;2003720;28;1831529;-66
2024/03/11 02:10:23;;;;;;;;;22.00;18.00;;;;;9.29;68.66;99987.78;2002774;28;1841978;-67
2024/03/11 02:11:33;;;;;;;;;18.50;17.50;;;;;9.29;68.51;99995.66;1969214;28;2825238;-66
2024/03/11 02:12:46;;;;;;;;;19.17;16.17;;;;;9.28;68.42;99996.59;2001326;28;2821084;-67
2024/03/11 02:13:59;;;;;;;;;21.00;17.67;;;;;9.27;68.65;99997.50;1985858;28;2827397;-66
2024/03/11 02:15:11;;;;;;;;;19.50;17.50;;;;;9.25;68.45;99987.06;1995537;28;2830419;-66
2024/03/11 02:16:22;;;;;;;;;18.67;18.67;;;;;9.21;68.42;99986.31;1967709;28;3569042;-67
2024/03/11 02:17:33;;;;;;;;;14.50;14.00;;;;;9.22;68.35;99989.81;1995482;28;2794072;-67
2024/03/11 02:18:44;;;;;;;;;18.00;15.00;;;;;9.17;68.25;99982.13;2009082;28;2802327;-66
2024/03/11 02:19:55;;;;;;;;;20.00;15.00;;;;;9.17;68.54;99992.59;2010740;28;2796081;-66
2024/03/11 02:21:06;;;;;;;;;22.25;17.25;;;;;9.15;68.28;99996.19;2011869;28;1830027;-66
2024/03/11 02:22:17;;;;;;;;;15.00;13.00;;;;;9.13;68.38;99993.66;1961860;28;2789902;-67
2024/03/11 02:23:28;;;;;;;;;14.00;14.00;;;;;9.07;68.50;99988.63;1995636;28;2804425;-67
2024/03/11 02:24:39;;;;;;;;;14.00;14.00;;;;;9.13;68.45;99998.91;1974083;28;2806500;-66
2024/03/11 02:25:51;;;;;;;;;13.50;12.00;;;;;9.13;68.23;100003.28;2000982;28;2791938;-67
2024/03/11 02:27:02;;;;;;;;;16.50;13.00;;;;;9.12;68.15;99999.78;1992344;28;2796097;-66
2024/03/11 02:28:12;;;;;;;;;13.00;12.00;;;;;9.12;68.63;99999.78;1968329;28;2784631;-67
2024/03/11 02:29:23;;;;;;;;;12.00;12.00;;;;;9.06;68.83;99994.81;2007434;28;2796124;-66
2024/03/11 02:30:34;;;;;;;;;12.00;11.25;;;;;9.07;68.65;99994.72;2030095;28;1819578;-66
2024/03/11 02:31:46;;;;;;;;;19.00;14.00;;;;;9.09;68.23;99997.28;1976558;28;2814861;-66
2024/03/11 02:32:57;;;;;;;;;13.00;13.00;;;;;9.05;68.71;99993.09;1976160;28;2789931;-66
2024/03/11 02:34:08;;;;;;;;;16.00;14.00;;;;;9.06;68.32;100002.66;2017409;28;2807554;-67
2024/03/11 02:35:20;;;;;;;;;17.00;13.00;;;;;9.05;68.18;99995.72;1993388;28;2806470;-66
2024/03/11 02:36:31;;;;;;;;;16.50;14.00;;;;;9.07;68.82;100002.59;1973023;28;2804441;-66
2024/03/11 02:37:43;;;;;;;;;13.00;13.00;;;;;9.04;68.30;100002.72;1973868;28;2784702;-66
2024/03/11 02:38:54;;;;;;;;;14.67;14.67;;;;;9.04;68.67;100012.38;1977098;28;2809048;-67
2024/03/11 02:40:09;;;;;;;;;15.00;11.50;;;;;9.02;68.29;100006.31;1995940;28;2800247;-66
2024/03/11 02:41:21;;;;;;;;;13.75;11.75;;;;;9.01;68.30;100005.47;1988435;28;1842489;-66
2024/03/11 02:42:31;;;;;;;;;16.00;13.00;;;;;9.00;68.58;100011.63;1997056;28;2799230;-66
2024/03/11 02:43:42;;;;;;;;;17.00;12.50;;;;;9.00;68.54;100012.47;2016150;28;2796116;-66
2024/03/11 02:44:53;;;;;;;;;18.00;13.00;;;;;8.93;68.51;100008.38;2002833;28;1833599;-67
2024/03/11 02:46:04;;;;;;;;;16.50;12.50;;;;;8.98;68.76;100016.94;1977267;28;2794022;-66
2024/03/11 02:47:15;;;;;;;;;13.00;12.50;;;;;8.95;68.87;100014.41;1983691;28;2786731;-67
2024/03/11 02:48:27;;;;;;;;;12.00;10.00;;;;;8.94;68.69;100017.94;1990955;28;2789872;-66
2024/03/11 02:49:38;;;;;;;;;17.50;13.00;;;;;8.96;68.53;100026.59;1974137;28;2797142;-67
2024/03/11 02:50:49;;;;;;;;;10.75;10.50;;;;;8.95;68.89;100027.53;2025583;28;1819056;-67
2024/03/11 02:51:59;;;;;;;;;12.00;12.00;;;;;8.98;68.67;100031.78;1976090;28;2793000;-67
2024/03/11 02:53:11;;;;;;;;;15.60;12.20;;;;;8.97;68.64;100017.81;2028755;28;1825435;-66
2024/03/11 02:54:23;;;;;;;;;17.50;14.00;;;;;8.97;68.88;100023.06;1976003;28;2785708;-67
2024/03/11 02:55:34;;;;;;;;;12.50;11.50;;;;;8.99;68.54;100025.63;1999534;28;2789868;-66
2024/03/11 02:56:46;;;;;;;;;12.50;12.00;;;;;9.00;68.81;100022.97;2013313;28;1841924;-66
2024/03/11 02:57:56;;;;;;;;;12.50;12.00;;;;;9.05;68.99;100021.91;1998698;28;2786710;-66
2024/03/11 02:59:08;;;;;;;;;11.00;10.50;;;;;9.06;68.83;100027.09;2007794;28;2789820;-66
2024/03/11 03:00:20;;;;;;;;;12.00;12.00;;;;;9.06;68.95;100019.22;1993598;28;1837820;-66
2024/03/11 03:01:30;;;;;;;;;14.00;14.00;;;;;9.06;69.15;100015.78;1996078;28;2800879;-67
2024/03/11 03:02:44;;;;;;;;;14.50;12.00;;;;;9.13;68.81;100026.88;2028749;28;1821203;-67
2024/03/11 03:03:55;;;;;;;;;15.50;14.00;;;;;9.13;68.64;100024.25;1976724;28;2792968;-66
2024/03/11 03:05:06;;;;;;;;;13.50;13.50;;;;;9.15;68.90;100030.28;2017625;28;2796095;-67
2024/03/11 03:06:19;;;;;;;;;12.00;12.00;;;;;9.18;68.75;100023.16;2034874;28;1815915;-66
2024/03/11 03:07:29;;;;;;;;;14.50;12.50;;;;;9.21;68.54;100028.28;1997770;28;2787755;-67
2024/03/11 03:08:40;;;;;;;;;16.00;13.00;;;;;9.21;68.64;100019.59;2012998;28;2799222;-66
2024/03/11 03:09:51;;;;;;;;;12.50;12.50;;;;;9.20;68.71;100023.09;1992538;28;2785660;-66
2024/03/11 03:11:03;;;;;;;;;12.00;12.00;;;;;9.23;68.67;100031.69;2015442;28;2791938;-66
2024/03/11 03:12:14;;;;;;;;;13.50;13.50;;;;;9.25;68.76;100025.53;1997454;28;2800319;-66
2024/03/11 03:13:28;;;;;;;;;16.67;14.67;;;;;9.25;68.26;100028.16;2031067;28;1829509;-66
2024/03/11 03:14:40;;;;;;;;;19.50;15.00;;;;;9.27;68.41;100028.94;1977736;28;2807563;-67
2024/03/11 03:15:50;;;;;;;;;11.50;10.00;;;;;9.29;68.71;100033.22;1969002;28;2794492;-66
2024/03/11 03:17:01;;;;;;;;;14.00;11.50;;;;;9.31;68.38;100035.81;2012109;28;2791907;-66
2024/03/11 03:18:13;;;;;;;;;18.00;14.00;;;;;9.29;68.24;100029.75;2004608;28;2808619;-66
2024/03/11 03:19:24;;;;;;;;;16.00;15.00;;;;;9.31;68.57;100035.81;1968074;28;2813813;-66
2024/03/11 03:20:35;;;;;;;;;17.67;15.67;;;;;9.36;68.36;100035.63;2003516;28;1864974;-67
2024/03/11 03:21:47;;;;;;;;;15.75;12.00;;;;;9.35;68.30;100037.38;1989918;28;1852461;-66
2024/03/11 03:22:58;;;;;;;;;13.00;13.00;;;;;9.35;68.75;100032.16;1999572;28;2799174;-66
2024/03/11 03:24:08;;;;;;;;;14.00;14.00;;;;;9.33;68.45;100023.50;1999297;28;2801290;-66
2024/03/11 03:25:19;;;;;;;;;14.75;13.50;;;;;9.38;68.28;100037.28;2005195;28;1827338;-66
2024/03/11 03:26:30;;;;;;;;;13.50;13.50;;;;;9.39;68.68;100033.72;1978336;28;2787719;-67
2024/03/11 03:27:41;;;;;;;;;12.67;12.33;;;;;9.42;68.79;100040.63;2008875;28;1842730;-67
2024/03/11 03:28:51;;;;;;;;;14.00;12.50;;;;;9.43;68.44;100043.16;1977156;28;2787776;-66
2024/03/11 03:30:04;;;;;;;;;13.20;9.80;;;;;9.47;68.79;100040.44;2030215;28;1813365;-67
2024/03/11 03:31:15;;;;;;;;;14.67;12.67;;;;;9.48;68.74;100042.16;1996810;28;3526303;-66
2024/03/11 03:32:27;;;;;;;;;16.20;13.20;;;;;9.50;68.54;100048.19;2027229;28;1825287;-66
2024/03/11 03:33:38;;;;;;;;;13.00;12.00;;;;;9.49;68.88;100035.97;1992649;28;2782544;-66
2024/03/11 03:34:49;;;;;;;;;16.50;14.50;;;;;9.51;68.37;100040.25;1998331;28;2802359;-66
2024/03/11 03:35:59;;;;;;;;;13.50;13.00;;;;;9.50;68.42;100040.31;1994086;28;2788159;-66
2024/03/11 03:37:10;;;;;;;;;10.00;10.00;;;;;9.53;68.59;100045.44;2010852;28;3513753;-66
2024/03/11 03:38:21;;;;;;;;;10.33;10.33;;;;;9.53;68.83;100037.59;2010460;28;3511719;-66
2024/03/11 03:39:33;;;;;;;;;13.50;13.50;;;;;9.52;68.50;100036.72;2010135;28;2798176;-66
2024/03/11 03:40:45;;;;;;;;;13.75;13.75;;;;;9.53;68.60;100034.97;2013830;28;1848182;-66
2024/03/11 03:41:55;;;;;;;;;12.00;11.00;;;;;9.55;68.67;100038.38;1998388;28;3511721;-67
2024/03/11 03:43:06;;;;;;;;;15.33;14.67;;;;;9.55;68.64;100035.75;1982702;28;3522480;-67
2024/03/11 03:44:18;;;;;;;;;12.00;11.00;;;;;9.53;68.70;100029.72;2005389;28;2787759;-66
2024/03/11 03:45:28;;;;;;;;;12.00;11.00;;;;;9.56;68.76;100043.53;1992790;28;2788801;-66
2024/03/11 03:46:39;;;;;;;;;13.00;12.50;;;;;9.56;68.62;100042.69;2009493;28;2785673;-67
2024/03/11 03:47:52;;;;;;;;;13.83;12.50;;;;;9.54;68.59;100040.13;2025075;28;1818101;-66
2024/03/11 03:49:02;;;;;;;;;18.00;15.00;;;;;9.57;68.51;100044.41;1998517;28;2807565;-66
2024/03/11 03:50:14;;;;;;;;;12.00;12.00;;;;;9.55;68.81;100046.25;1992729;28;2785072;-67
2024/03/11 03:51:25;;;;;;;;;14.50;12.75;;;;;9.59;68.80;100054.81;2005724;28;1840875;-67
2024/03/11 03:52:44;;;;;;;;;11.50;11.00;;;;;9.59;68.69;100055.69;1991650;28;2789863;-67
2024/03/11 03:53:57;;;;;;;;;14.75;13.75;;;;;9.60;68.94;100061.78;2009179;28;1838874;-66
2024/03/11 03:55:11;;;;;;;;;11.50;11.50;;;;;9.60;68.57;100056.56;1999224;28;2787784;-67
2024/03/11 03:56:25;;;;;;;;;10.00;9.50;;;;;9.59;68.58;100050.44;2008129;28;1848201;-67
2024/03/11 03:57:37;;;;;;;;;15.50;13.00;;;;;9.59;68.55;100058.31;2007895;28;1841973;-66
2024/03/11 03:58:49;;;;;;;;;13.75;11.25;;;;;9.57;68.94;100052.28;2006737;28;1832704;-66
2024/03/11 04:00:00;;;;;;;;;11.00;11.00;;;;;9.62;68.52;100055.56;1998519;28;2787249;-67
2024/03/11 04:01:11;;;;;;;;;12.00;12.00;;;;;9.60;68.64;100052.16;1996964;28;2787748;-67
2024/03/11 04:02:22;;;;;;;;;14.75;10.75;;;;;9.59;68.92;100054.81;2032607;28;1851370;-66
2024/03/11 04:03:36;;;;;;;;;16.00;13.00;;;;;9.61;69.01;100053.84;1999626;28;2800290;-66
2024/03/11 04:04:47;;;;;;;;;15.25;11.75;;;;;9.64;68.86;100058.97;1991998;28;1839837;-66
2024/03/11 04:05:59;;;;;;;;;13.25;11.50;;;;;9.63;69.09;100056.44;2013993;28;1844025;-67
2024/03/11 04:07:10;;;;;;;;;13.33;11.67;;;;;9.65;68.88;100068.59;1994064;28;3512742;-66
2024/03/11 04:08:23;;;;;;;;;11.00;11.00;;;;;9.65;68.77;100059.84;2015534;28;1846147;-67
2024/03/11 04:09:38;;;;;;;;;12.00;11.67;;;;;9.64;68.81;100058.13;2029997;28;1829480;-67
2024/03/11 04:10:49;;;;;;;;;17.00;14.50;;;;;9.67;68.73;100063.25;1969854;28;2814849;-67
2024/03/11 04:11:59;;;;;;;;;12.00;12.00;;;;;9.67;68.81;100066.75;1985779;28;2787755;-67
2024/03/11 04:13:12;;;;;;;;;16.00;13.00;;;;;9.67;68.25;100058.88;2016362;28;2794013;-67
2024/03/11 04:14:22;;;;;;;;;14.00;12.00;;;;;9.70;68.73;100067.53;1969313;28;3513791;-66
2024/03/11 04:15:34;;;;;;;;;14.00;12.50;;;;;9.67;68.40;100058.00;2009412;28;2787775;-66
2024/03/11 04:16:44;;;;;;;;;11.67;9.67;;;;;9.68;68.79;100060.56;2003381;28;3505432;-67
2024/03/11 04:17:55;;;;;;;;;15.50;14.75;;;;;9.71;68.46;100064.84;2015734;28;1820154;-66
2024/03/11 04:19:07;;;;;;;;;14.00;12.00;;;;;9.68;68.67;100060.56;1969469;28;2789831;-67
2024/03/11 04:20:22;;;;;;;;;11.00;11.00;;;;;9.71;68.67;100058.72;1988590;28;3513780;-66
2024/03/11 04:21:33;;;;;;;;;14.00;13.00;;;;;9.70;68.71;100062.28;1967643;28;2789848;-67
2024/03/11 04:22:49;;;;;;;;;14.25;13.25;;;;;9.71;68.73;100058.72;2007292;28;1844072;-67
2024/03/11 04:23:59;;;;;;;;;15.00;13.50;;;;;9.74;68.40;100063.84;1998102;28;2794012;-66
2024/03/11 04:25:15;;;;;;;;;13.67;11.67;;;;;9.73;68.57;100064.78;2024879;28;1841909;-66
2024/03/11 04:26:28;;;;;;;;;16.00;13.75;;;;;9.72;68.33;100060.44;1984333;28;1842010;-66
2024/03/11 04:27:39;;;;;;;;;14.00;12.50;;;;;9.73;68.50;100064.78;1993199;28;2788805;-66
2024/03/11 04:28:50;;;;;;;;;15.00;13.00;;;;;9.73;68.52;100065.63;2000008;28;2800244;-66
2024/03/11 04:30:01;;;;;;;;;14.00;11.33;;;;;9.73;68.60;100062.16;2006416;28;1838862;-66
2024/03/11 04:31:11;;;;;;;;;16.00;13.00;;;;;9.76;68.70;100067.28;1978131;28;2803341;-66
2024/03/11 04:32:24;;;;;;;;;10.67;10.67;;;;;9.72;68.48;100057.81;2009389;28;1837827;-66
2024/03/11 04:33:34;;;;;;;;;15.50;13.00;;;;;9.75;68.47;100065.59;1976037;28;2794025;-67
2024/03/11 04:34:45;;;;;;;;;12.50;11.50;;;;;9.73;68.36;100060.38;2015365;28;2778374;-67
2024/03/11 04:35:58;;;;;;;;;18.40;15.40;;;;;9.76;68.70;100072.53;2029545;28;1831539;-67
2024/03/11 04:37:09;;;;;;;;;13.25;13.00;;;;;9.74;68.50;100069.09;2015225;28;1836227;-66
2024/03/11 04:38:20;;;;;;;;;18.00;17.00;;;;;9.72;68.78;100069.19;1985279;28;2794017;-66
2024/03/11 04:39:33;;;;;;;;;19.00;14.33;;;;;9.73;68.68;100070.88;2022657;28;2808568;-66
2024/03/11 04:40:44;;;;;;;;;13.00;10.00;;;;;9.77;68.91;100074.25;1992228;28;2786730;-66
2024/03/11 04:41:56;;;;;;;;;15.00;14.75;;;;;9.75;68.29;100076.06;2028856;28;1841953;-66
2024/03/11 04:43:06;;;;;;;;;14.00;14.00;;;;;9.75;68.18;100068.19;1999318;28;2785645;-66
2024/03/11 04:44:19;;;;;;;;;17.80;15.40;;;;;9.75;68.71;100065.59;2005930;28;1827362;-66
2024/03/11 04:45:30;;;;;;;;;13.00;12.00;;;;;9.77;68.44;100076.88;1975493;28;2796081;-67
2024/03/11 04:46:41;;;;;;;;;11.00;11.00;;;;;9.77;68.71;100067.22;1999065;28;2787783;-66
2024/03/11 04:47:54;;;;;;;;;13.33;10.33;;;;;9.78;68.79;100075.94;2013944;28;3508567;-66
2024/03/11 04:49:05;;;;;;;;;19.00;14.00;;;;;9.77;68.43;100075.09;1999330;28;2797167;-67
2024/03/11 04:50:24;;;;;;;;;14.00;11.00;;;;;9.70;68.68;100065.75;1976148;28;2788830;-66
2024/03/11 04:51:35;;;;;;;;;17.50;15.00;;;;;9.79;68.49;100080.28;1999828;28;2806524;-67
2024/03/11 04:52:46;;;;;;;;;14.50;14.50;;;;;9.79;68.63;100085.53;1985560;28;2794021;-67
2024/03/11 04:53:58;;;;;;;;;11.50;10.25;;;;;9.77;68.73;100074.25;2030292;28;1836250;-66
2024/03/11 04:55:08;;;;;;;;;16.00;13.00;;;;;9.78;68.71;100082.03;1996117;28;2797162;-67
2024/03/11 04:56:19;;;;;;;;;18.00;15.00;;;;;9.79;68.71;100083.75;2018077;28;2806544;-67
2024/03/11 04:57:30;;;;;;;;;13.00;13.00;;;;;9.77;68.78;100082.13;1993221;28;2800590;-67
2024/03/11 04:58:41;;;;;;;;;18.00;16.00;;;;;9.79;68.68;100085.53;2016318;28;2811769;-66
2024/03/11 04:59:53;;;;;;;;;18.00;17.25;;;;;9.78;68.58;100086.44;2001463;28;1841923;-67
2024/03/11 05:01:07;;;;;;;;;14.50;14.50;;;;;9.81;68.68;100090.69;1973026;28;2789823;-66
2024/03/11 05:02:23;;;;;;;;;20.43;18.14;;;;;9.79;68.60;100088.16;2004910;28;1829409;-67
2024/03/11 05:03:36;;;;;;;;;19.83;14.17;;;;;9.78;68.52;100089.06;2029238;28;1832144;-66
2024/03/11 05:04:47;;;;;;;;;16.00;13.50;;;;;9.77;68.52;100080.34;1976253;28;2791962;-66
2024/03/11 05:05:57;;;;;;;;;16.50;13.00;;;;;9.79;68.52;100089.00;2009965;28;2800232;-66
2024/03/11 05:07:08;;;;;;;;;15.00;13.50;;;;;9.81;68.58;100088.06;1986170;28;2790893;-66
2024/03/11 05:08:20;;;;;;;;;17.00;13.00;;;;;9.81;68.28;100096.81;2011857;28;2803377;-66
2024/03/11 05:09:31;;;;;;;;;15.50;14.50;;;;;9.81;68.52;100091.56;1989692;28;2807516;-66
2024/03/11 05:10:42;;;;;;;;;18.00;15.00;;;;;9.82;68.68;100098.53;1998620;28;1827902;-66
2024/03/11 05:11:52;;;;;;;;;15.50;13.00;;;;;9.80;68.84;100095.13;1976404;28;2792955;-66
2024/03/11 05:13:04;;;;;;;;;16.00;15.00;;;;;9.79;68.57;100089.00;2017195;28;2808643;-66
2024/03/11 05:14:18;;;;;;;;;22.86;18.57;;;;;9.81;68.59;100095.94;2003559;28;1841931;-67
2024/03/11 05:15:32;;;;;;;;;20.00;17.20;;;;;9.82;68.69;100101.16;2011961;28;2837735;-66
2024/03/11 05:16:44;;;;;;;;;19.00;18.33;;;;;9.81;68.64;100094.19;1967781;28;2829591;-67
2024/03/11 05:17:55;;;;;;;;;20.00;17.00;;;;;9.82;68.52;100095.91;1991864;28;2827370;-67
2024/03/11 05:19:06;;;;;;;;;11.50;11.00;;;;;9.82;68.58;100097.66;1982343;28;1829528;-66
2024/03/11 05:20:19;;;;;;;;;17.75;15.00;;;;;9.82;68.36;100092.41;2011622;28;1831500;-66
2024/03/11 05:21:29;;;;;;;;;16.50;15.00;;;;;9.82;68.48;100097.66;1961682;28;2811128;-66
2024/03/11 05:22:41;;;;;;;;;17.00;14.50;;;;;9.81;68.48;100096.81;1986473;28;2820069;-66
2024/03/11 05:23:52;;;;;;;;;13.50;12.00;;;;;9.84;68.32;100101.09;1968515;28;2786718;-66
2024/03/11 05:25:19;;;;;;;;;16.20;14.60;;;;;9.82;68.43;100089.78;2021264;28;1825302;-66